Time;durP1;ratioP1;P1;durP2;ratioP2;P2;SDS_P1;SDS_P2;PMS_P1;PMS_P2;Temp;Humidity;BMP_temperature;BMP_pressure;BME280_temperature;BME280_humidity;BME280_pressure;Samples;Min_cycle;Max_cycle;Signal;HPM_P1;HPM_P2
2022/12/10 00:01:50;;;;;;;45.30;37.95;;;;;;;;;;5097393;28;20249;-81
2022/12/10 00:04:18;;;;;;;44.90;39.38;;;;;;;;;;5097280;28;20208;-81
2022/12/10 00:06:45;;;;;;;47.97;40.03;;;;;;;;;;5096864;28;20216;-80
2022/12/10 00:09:13;;;;;;;46.05;38.70;;;;;;;;;;5097603;28;20555;-83
2022/12/10 00:11:40;;;;;;;47.47;40.97;;;;;;;;;;5098364;28;20294;-80
2022/12/10 00:14:09;;;;;;;43.53;38.88;;;;;;;;;;5096966;28;20203;-80
2022/12/10 00:16:36;;;;;;;44.70;38.70;;;;;;;;;;5097310;28;20226;-80
2022/12/10 00:19:03;;;;;;;45.25;40.22;;;;;;;;;;5096881;28;20217;-82
2022/12/10 00:21:31;;;;;;;46.03;40.50;;;;;;;;;;5097491;28;20210;-81
2022/12/10 00:23:59;;;;;;;48.17;40.97;;;;;;;;;;5096174;28;20216;-81
2022/12/10 00:26:27;;;;;;;45.90;40.95;;;;;;;;;;5096672;28;20257;-80
2022/12/10 00:28:55;;;;;;;47.15;41.63;;;;;;;;;;5096839;28;20234;-80
2022/12/10 00:31:25;;;;;;;51.38;40.45;;;;;;;;;;5097352;28;20636;-80
2022/12/10 00:33:52;;;;;;;45.40;38.85;;;;;;;;;;5096579;28;20264;-81
2022/12/10 00:36:20;;;;;;;44.83;39.92;;;;;;;;;;5097241;28;20230;-80
2022/12/10 00:38:48;;;;;;;44.15;39.40;;;;;;;;;;5099219;28;20583;-81
2022/12/10 00:41:15;;;;;;;43.35;38.63;;;;;;;;;;5099139;28;20286;-81
2022/12/10 00:43:42;;;;;;;49.35;38.38;;;;;;;;;;5098567;28;20212;-80
2022/12/10 00:46:10;;;;;;;44.92;40.30;;;;;;;;;;5099379;28;20227;-80
2022/12/10 00:48:38;;;;;;;45.03;40.15;;;;;;;;;;5098710;28;20224;-80
2022/12/10 00:51:07;;;;;;;48.60;41.83;;;;;;;;;;5099091;28;20208;-81
2022/12/10 00:53:34;;;;;;;43.90;39.22;;;;;;;;;;5098197;28;20234;-80
2022/12/10 00:56:03;;;;;;;44.88;40.17;;;;;;;;;;5098989;28;20222;-80
2022/12/10 00:58:30;;;;;;;47.13;39.00;;;;;;;;;;5098870;28;20656;-80
2022/12/10 01:01:07;;;;;;;47.03;41.78;;;;;;;;;;5099023;28;20203;-80
2022/12/10 01:03:34;;;;;;;46.90;40.75;;;;;;;;;;5098618;28;20545;-81
2022/12/10 01:06:10;;;;;;;47.20;40.90;;;;;;;;;;5099400;28;20231;-80
2022/12/10 01:08:37;;;;;;;45.65;40.70;;;;;;;;;;5099270;28;20208;-81
2022/12/10 01:11:04;;;;;;;45.38;40.38;;;;;;;;;;5098956;28;20212;-80
2022/12/10 01:13:31;;;;;;;49.13;42.10;;;;;;;;;;5098107;28;20198;-80
2022/12/10 01:16:01;;;;;;;57.88;42.65;;;;;;;;;;5098471;28;20231;-81
2022/12/10 01:18:28;;;;;;;45.10;39.42;;;;;;;;;;5098947;28;20229;-80
2022/12/10 01:20:55;;;;;;;42.22;37.33;;;;;;;;;;5098762;28;20208;-81
2022/12/10 01:23:23;;;;;;;48.60;40.78;;;;;;;;;;5098583;28;20198;-81
2022/12/10 01:25:50;;;;;;;47.30;41.00;;;;;;;;;;5098813;28;20230;-81
2022/12/10 01:28:17;;;;;;;48.35;40.92;;;;;;;;;;5098600;28;20229;-81
2022/12/10 01:30:45;;;;;;;46.65;41.10;;;;;;;;;;5098540;28;20216;-80
2022/12/10 01:33:12;;;;;;;45.13;40.05;;;;;;;;;;5098155;28;20206;-81
2022/12/10 01:35:40;;;;;;;44.35;39.40;;;;;;;;;;5098743;28;20235;-81
2022/12/10 01:38:07;;;;;;;46.25;40.58;;;;;;;;;;5097714;28;20210;-80
2022/12/10 01:40:40;;;;;;;45.45;40.55;;;;;;;;;;5098904;28;20203;-81
2022/12/10 01:43:07;;;;;;;47.20;41.28;;;;;;;;;;5098029;28;20187;-81
2022/12/10 01:45:34;;;;;;;46.83;41.72;;;;;;;;;;5098609;28;20276;-80
2022/12/10 01:48:02;;;;;;;44.85;39.95;;;;;;;;;;5096801;28;20219;-81
2022/12/10 01:50:29;;;;;;;53.65;42.47;;;;;;;;;;5098226;28;20207;-81
2022/12/10 01:52:56;;;;;;;47.13;39.80;;;;;;;;;;5097600;28;20223;-82
2022/12/10 01:55:44;;;;;;;45.80;39.90;;;;;;;;;;5097154;28;20625;-80
2022/12/10 01:58:14;;;;;;;47.85;42.33;;;;;;;;;;5092789;28;20202;-80
2022/12/10 02:00:45;;;;;;;47.08;38.85;;;;;;;;;;5097794;28;20203;-80
2022/12/10 02:03:14;;;;;;;49.15;40.63;;;;;;;;;;5097873;28;20206;-82
2022/12/10 02:05:43;;;;;;;44.72;39.92;;;;;;;;;;5097701;28;20227;-82
2022/12/10 02:08:15;;;;;;;45.85;40.97;;;;;;;;;;5097543;28;20694;-81
2022/12/10 02:10:47;;;;;;;45.22;40.45;;;;;;;;;;5098091;28;20582;-81
2022/12/10 02:13:19;;;;;;;45.22;40.42;;;;;;;;;;5097329;28;20187;-80
2022/12/10 02:15:49;;;;;;;47.35;41.67;;;;;;;;;;5097930;28;20226;-81
2022/12/10 02:18:20;;;;;;;47.88;39.30;;;;;;;;;;5098166;28;20210;-81
2022/12/10 02:20:48;;;;;;;43.65;39.05;;;;;;;;;;5097204;28;20201;-80
2022/12/10 02:23:17;;;;;;;45.78;40.15;;;;;;;;;;5097474;28;20214;-82
2022/12/10 02:25:48;;;;;;;45.33;40.42;;;;;;;;;;5097667;28;20224;-80
2022/12/10 02:28:21;;;;;;;44.38;39.35;;;;;;;;;;5097376;28;20211;-81
2022/12/10 02:30:51;;;;;;;47.78;42.72;;;;;;;;;;5097709;28;20198;-81
2022/12/10 02:33:20;;;;;;;47.20;40.65;;;;;;;;;;5096553;28;20217;-81
2022/12/10 02:35:48;;;;;;;44.53;39.90;;;;;;;;;;5097418;28;20223;-81
2022/12/10 02:38:17;;;;;;;47.42;41.30;;;;;;;;;;5096758;28;20208;-81
2022/12/10 02:40:47;;;;;;;44.92;40.17;;;;;;;;;;5097118;28;20687;-80
2022/12/10 02:43:15;;;;;;;45.58;40.63;;;;;;;;;;5096894;28;20214;-80
2022/12/10 02:45:43;;;;;;;45.53;40.03;;;;;;;;;;5097463;28;20220;-82
2022/12/10 02:48:11;;;;;;;47.35;41.15;;;;;;;;;;5097493;28;20224;-81
2022/12/10 02:50:38;;;;;;;44.05;39.28;;;;;;;;;;5097291;28;20208;-80
2022/12/10 02:53:05;;;;;;;45.38;39.40;;;;;;;;;;5096454;28;20555;-81
2022/12/10 02:55:38;;;;;;;44.03;39.08;;;;;;;;;;5097330;28;20226;-80
2022/12/10 02:58:12;;;;;;;43.33;38.83;;;;;;;;;;5096741;28;20620;-87
2022/12/10 03:00:43;;;;;;;43.30;38.03;;;;;;;;;;5097215;28;20219;-80
2022/12/10 03:03:18;;;;;;;43.88;38.85;;;;;;;;;;5096347;28;20187;-81
2022/12/10 03:05:49;;;;;;;46.63;37.05;;;;;;;;;;5096483;28;20226;-81
2022/12/10 03:08:19;;;;;;;45.33;40.08;;;;;;;;;;5096407;28;20227;-81
2022/12/10 03:10:50;;;;;;;46.03;40.10;;;;;;;;;;5096519;28;20209;-80
2022/12/10 03:13:17;;;;;;;42.15;37.70;;;;;;;;;;5095741;28;20198;-81
2022/12/10 03:15:45;;;;;;;42.83;38.22;;;;;;;;;;5096160;28;20227;-81
2022/12/10 03:18:16;;;;;;;42.45;38.13;;;;;;;;;;5096347;28;20199;-80
2022/12/10 03:20:44;;;;;;;44.53;39.63;;;;;;;;;;5096670;28;20195;-81
2022/12/10 03:23:12;;;;;;;44.00;38.47;;;;;;;;;;5095740;28;20200;-81
2022/12/10 03:25:40;;;;;;;43.65;38.92;;;;;;;;;;5096488;28;20230;-81
2022/12/10 03:28:08;;;;;;;44.92;40.33;;;;;;;;;;5095912;28;20227;-80
2022/12/10 03:30:37;;;;;;;45.65;40.70;;;;;;;;;;5095677;28;20210;-82
2022/12/10 03:33:04;;;;;;;44.55;38.83;;;;;;;;;;5095239;28;20207;-80
2022/12/10 03:35:33;;;;;;;44.40;37.65;;;;;;;;;;5095736;28;20274;-80
2022/12/10 03:38:00;;;;;;;41.53;37.28;;;;;;;;;;5095468;28;20202;-82
2022/12/10 03:40:28;;;;;;;45.35;38.30;;;;;;;;;;5095696;28;20220;-81
2022/12/10 03:42:55;;;;;;;42.35;37.53;;;;;;;;;;5095999;28;20210;-82
2022/12/10 03:45:22;;;;;;;41.88;37.40;;;;;;;;;;5095536;28;20222;-80
2022/12/10 03:47:50;;;;;;;50.50;41.83;;;;;;;;;;5095716;28;20560;-81
2022/12/10 03:50:17;;;;;;;42.67;38.20;;;;;;;;;;5096199;28;20666;-83
2022/12/10 03:52:45;;;;;;;42.90;38.10;;;;;;;;;;5095706;28;20584;-81
2022/12/10 03:55:12;;;;;;;43.42;38.33;;;;;;;;;;5095039;28;20203;-82
2022/12/10 03:57:39;;;;;;;43.13;37.95;;;;;;;;;;5095807;28;20206;-80
2022/12/10 04:00:08;;;;;;;39.53;35.33;;;;;;;;;;5095986;28;20194;-81
2022/12/10 04:02:35;;;;;;;44.53;37.28;;;;;;;;;;5095822;28;20207;-82
2022/12/10 04:05:04;;;;;;;43.35;37.22;;;;;;;;;;5095373;28;20203;-81
2022/12/10 04:07:31;;;;;;;42.17;37.70;;;;;;;;;;5095827;28;20275;-81
2022/12/10 04:10:00;;;;;;;42.50;37.60;;;;;;;;;;5096021;28;20231;-81
2022/12/10 04:12:27;;;;;;;41.97;37.53;;;;;;;;;;5100293;28;20207;-81
2022/12/10 04:17:39;;;;;;;42.95;37.20;;;;;;;;;;5100272;28;20225;-81
2022/12/10 04:26:51;;;;;;;42.35;37.92;;;;;;;;;;5100041;28;20210;-82
2022/12/10 04:28:24;;;;;;;42.45;37.88;;;;;;;;;;5099737;28;20230;-80
2022/12/10 04:30:51;;;;;;;47.45;42.25;;;;;;;;;;5099818;28;20207;-80
2022/12/10 04:33:18;;;;;;;45.08;40.05;;;;;;;;;;5099077;28;20216;-81
2022/12/10 04:35:45;;;;;;;49.58;42.70;;;;;;;;;;5099652;28;20228;-81
2022/12/10 04:38:12;;;;;;;44.88;38.10;;;;;;;;;;5099031;28;20627;-80
2022/12/10 04:40:41;;;;;;;45.65;39.65;;;;;;;;;;5099341;28;20214;-80
2022/12/10 04:43:08;;;;;;;42.75;38.28;;;;;;;;;;5099125;28;20203;-80
2022/12/10 04:45:35;;;;;;;44.13;39.40;;;;;;;;;;5099703;28;20232;-81
2022/12/10 04:48:02;;;;;;;43.92;39.22;;;;;;;;;;5099274;28;20235;-80
2022/12/10 04:50:29;;;;;;;44.10;39.38;;;;;;;;;;5099421;28;20207;-80
2022/12/10 04:52:56;;;;;;;45.85;39.90;;;;;;;;;;5099163;28;20211;-82
2022/12/10 04:55:24;;;;;;;44.88;39.22;;;;;;;;;;5099172;28;20219;-82
2022/12/10 04:57:52;;;;;;;43.72;39.17;;;;;;;;;;5099221;28;20200;-81
2022/12/10 05:00:19;;;;;;;46.72;40.75;;;;;;;;;;5098814;28;20203;-81
2022/12/10 05:02:49;;;;;;;46.30;38.83;;;;;;;;;;5098734;28;20204;-81
2022/12/10 05:05:16;;;;;;;48.03;39.45;;;;;;;;;;5098195;28;20262;-81
2022/12/10 05:07:43;;;;;;;44.97;39.10;;;;;;;;;;5099096;28;20207;-81
2022/12/10 05:10:11;;;;;;;46.78;39.55;;;;;;;;;;5098901;28;20223;-81
2022/12/10 05:12:38;;;;;;;42.65;38.10;;;;;;;;;;5098722;28;20237;-81
2022/12/10 05:15:07;;;;;;;44.72;39.80;;;;;;;;;;5097573;28;20685;-82
2022/12/10 05:17:34;;;;;;;41.97;37.42;;;;;;;;;;5098366;28;20225;-81
2022/12/10 05:20:01;;;;;;;51.80;41.25;;;;;;;;;;5099141;28;20224;-81
2022/12/10 05:25:13;;;;;;;44.13;39.42;;;;;;;;;;5076951;28;20272;-81
2022/12/10 05:27:40;;;;;;;46.22;40.78;;;;;;;;;;5098671;28;20232;-80
2022/12/10 05:30:10;;;;;;;46.63;41.75;;;;;;;;;;5098317;28;20219;-82
2022/12/10 05:32:37;;;;;;;45.20;40.05;;;;;;;;;;5098142;28;20210;-81
2022/12/10 05:35:05;;;;;;;46.58;41.63;;;;;;;;;;5097942;28;20214;-82
2022/12/10 05:37:32;;;;;;;45.28;40.42;;;;;;;;;;5098138;28;20211;-81
2022/12/10 05:39:59;;;;;;;45.47;40.22;;;;;;;;;;5098083;28;20189;-82
2022/12/10 05:42:26;;;;;;;46.25;41.42;;;;;;;;;;5098461;28;20261;-80
2022/12/10 05:44:53;;;;;;;47.80;41.97;;;;;;;;;;5097660;28;20697;-81
2022/12/10 05:47:23;;;;;;;44.65;40.03;;;;;;;;;;5098333;28;20230;-81
2022/12/10 05:49:50;;;;;;;47.30;41.40;;;;;;;;;;5098085;28;20219;-81
2022/12/10 05:52:17;;;;;;;44.25;39.53;;;;;;;;;;5098135;28;20203;-81
2022/12/10 05:54:44;;;;;;;44.13;39.53;;;;;;;;;;5097420;28;20670;-81
2022/12/10 05:57:11;;;;;;;46.20;41.10;;;;;;;;;;5097996;28;20219;-82
2022/12/10 05:59:38;;;;;;;47.95;42.67;;;;;;;;;;5098042;28;20200;-81
2022/12/10 06:02:05;;;;;;;48.17;41.63;;;;;;;;;;5097517;28;20211;-81
2022/12/10 06:04:34;;;;;;;47.72;42.78;;;;;;;;;;5098213;28;20209;-82
2022/12/10 06:07:01;;;;;;;43.83;39.17;;;;;;;;;;5098436;28;20223;-81
2022/12/10 06:09:28;;;;;;;48.15;42.53;;;;;;;;;;5098234;28;20558;-81
2022/12/10 06:11:55;;;;;;;46.78;41.33;;;;;;;;;;5097530;28;20678;-80
2022/12/10 06:14:22;;;;;;;44.53;39.65;;;;;;;;;;5097922;28;20205;-82
2022/12/10 06:16:49;;;;;;;45.75;40.60;;;;;;;;;;5098083;28;20226;-81
2022/12/10 06:19:16;;;;;;;47.88;40.35;;;;;;;;;;5097964;28;20200;-81
2022/12/10 06:21:45;;;;;;;47.30;42.03;;;;;;;;;;5097606;28;20198;-81
2022/12/10 06:24:12;;;;;;;48.28;41.85;;;;;;;;;;5097293;28;20554;-82
2022/12/10 06:26:39;;;;;;;45.50;40.58;;;;;;;;;;5097315;28;20242;-80
2022/12/10 06:29:06;;;;;;;46.30;41.30;;;;;;;;;;5097860;28;20215;-82
2022/12/10 06:31:34;;;;;;;46.25;41.53;;;;;;;;;;5097667;28;20203;-81
2022/12/10 06:34:01;;;;;;;47.22;42.10;;;;;;;;;;5096695;28;20566;-81
2022/12/10 06:36:28;;;;;;;45.85;41.05;;;;;;;;;;5097775;28;20227;-81
2022/12/10 06:38:56;;;;;;;45.92;41.25;;;;;;;;;;5096967;28;20211;-80
2022/12/10 06:41:23;;;;;;;47.35;42.38;;;;;;;;;;5097413;28;20280;-81
2022/12/10 06:43:50;;;;;;;46.50;41.55;;;;;;;;;;5096662;28;20203;-80
2022/12/10 06:46:18;;;;;;;46.08;41.22;;;;;;;;;;5097682;28;20234;-81
2022/12/10 06:48:46;;;;;;;45.35;40.50;;;;;;;;;;5097024;28;20680;-80
2022/12/10 06:51:14;;;;;;;45.15;40.53;;;;;;;;;;5097638;28;20203;-81
2022/12/10 06:53:41;;;;;;;44.50;39.85;;;;;;;;;;5096727;28;20208;-81
2022/12/10 06:56:13;;;;;;;46.45;40.90;;;;;;;;;;5097492;28;20580;-81
2022/12/10 06:58:40;;;;;;;42.80;38.22;;;;;;;;;;5097641;28;20240;-82
2022/12/10 07:01:08;;;;;;;46.42;41.70;;;;;;;;;;5097143;28;20208;-81
2022/12/10 07:03:35;;;;;;;43.25;38.55;;;;;;;;;;5096730;28;20199;-80
2022/12/10 07:06:03;;;;;;;45.38;40.67;;;;;;;;;;5097585;28;20271;-81
2022/12/10 07:08:31;;;;;;;41.70;37.22;;;;;;;;;;5097551;28;20211;-81
2022/12/10 07:10:59;;;;;;;44.60;40.00;;;;;;;;;;5097057;28;20214;-81
2022/12/10 07:13:27;;;;;;;48.38;42.58;;;;;;;;;;5096705;28;20577;-82
2022/12/10 07:15:54;;;;;;;52.70;47.10;;;;;;;;;;5097451;28;20224;-81
2022/12/10 07:18:22;;;;;;;45.15;40.67;;;;;;;;;;5097606;28;20206;-82
2022/12/10 07:20:49;;;;;;;44.08;39.55;;;;;;;;;;5097116;28;20791;-83
2022/12/10 07:23:16;;;;;;;41.65;37.38;;;;;;;;;;5096685;28;20222;-81
2022/12/10 07:28:48;;;;;;;41.10;37.20;;;;;;;;;;5094840;28;20185;-81
2022/12/10 07:31:15;;;;;;;43.75;39.22;;;;;;;;;;5096911;28;20203;-81
2022/12/10 07:33:42;;;;;;;43.55;39.03;;;;;;;;;;5095908;28;20256;-81
2022/12/10 07:36:11;;;;;;;44.00;39.35;;;;;;;;;;5096520;28;20223;-80
2022/12/10 07:38:38;;;;;;;43.92;38.97;;;;;;;;;;5096247;28;20231;-79
2022/12/10 07:41:05;;;;;;;42.08;37.78;;;;;;;;;;5092844;28;20212;-78
2022/12/10 07:43:34;;;;;;;43.95;39.15;;;;;;;;;;5092715;28;20195;-78
2022/12/10 07:46:06;;;;;;;46.75;41.75;;;;;;;;;;5096639;28;20223;-78
2022/12/10 07:48:33;;;;;;;43.38;38.67;;;;;;;;;;5097721;28;20182;-78
2022/12/10 07:51:00;;;;;;;46.40;41.20;;;;;;;;;;5097221;28;20233;-77
2022/12/10 07:53:27;;;;;;;45.13;40.42;;;;;;;;;;5096773;28;20202;-78
2022/12/10 07:55:54;;;;;;;44.20;39.58;;;;;;;;;;5096998;28;20228;-78
2022/12/10 07:58:21;;;;;;;47.10;40.50;;;;;;;;;;5097320;28;20188;-78
2022/12/10 08:00:48;;;;;;;43.58;39.03;;;;;;;;;;5097150;28;20203;-78
2022/12/10 08:03:16;;;;;;;43.15;38.72;;;;;;;;;;5096528;28;20217;-78
2022/12/10 08:05:43;;;;;;;45.20;40.42;;;;;;;;;;5097011;28;20587;-79
2022/12/10 08:08:10;;;;;;;44.38;39.78;;;;;;;;;;5096472;28;20686;-78
2022/12/10 08:10:38;;;;;;;47.75;42.70;;;;;;;;;;5097976;28;20222;-78
2022/12/10 08:13:06;;;;;;;47.28;42.28;;;;;;;;;;5096343;28;20199;-78
2022/12/10 08:15:33;;;;;;;48.40;41.92;;;;;;;;;;5096328;28;20702;-78
2022/12/10 08:18:00;;;;;;;48.55;42.58;;;;;;;;;;5098497;28;20210;-79
2022/12/10 08:20:28;;;;;;;45.25;40.38;;;;;;;;;;5096702;28;20204;-79
2022/12/10 08:22:55;;;;;;;47.30;42.40;;;;;;;;;;5096418;28;20212;-79
2022/12/10 08:25:22;;;;;;;45.17;40.33;;;;;;;;;;5095797;28;20215;-79
2022/12/10 08:27:49;;;;;;;46.22;40.72;;;;;;;;;;5096324;28;20702;-79
2022/12/10 08:30:16;;;;;;;45.92;41.30;;;;;;;;;;5096553;28;20224;-78
2022/12/10 08:32:43;;;;;;;43.53;39.22;;;;;;;;;;5096647;28;20208;-77
2022/12/10 08:35:10;;;;;;;43.83;39.55;;;;;;;;;;5095137;28;20210;-77
2022/12/10 08:37:41;;;;;;;46.30;41.53;;;;;;;;;;5095970;28;20207;-78
2022/12/10 08:40:09;;;;;;;47.70;42.60;;;;;;;;;;5096064;28;20873;-77
2022/12/10 08:42:36;;;;;;;44.33;40.15;;;;;;;;;;5096154;28;20426;-77
2022/12/10 08:45:04;;;;;;;43.95;39.42;;;;;;;;;;5095372;28;20199;-78
2022/12/10 08:47:31;;;;;;;45.28;40.45;;;;;;;;;;5095491;28;20206;-77
2022/12/10 08:49:58;;;;;;;45.05;40.22;;;;;;;;;;5095955;28;20226;-77
2022/12/10 08:52:25;;;;;;;50.83;44.47;;;;;;;;;;5095365;28;20659;-77
2022/12/10 08:54:53;;;;;;;45.72;41.05;;;;;;;;;;5095052;28;20200;-78
2022/12/10 08:57:20;;;;;;;45.70;41.15;;;;;;;;;;5094989;28;20698;-78
2022/12/10 08:59:47;;;;;;;45.22;40.70;;;;;;;;;;5095600;28;20252;-77
2022/12/10 09:02:15;;;;;;;46.50;41.45;;;;;;;;;;5095836;28;20207;-79
2022/12/10 09:04:42;;;;;;;44.20;39.75;;;;;;;;;;5094741;28;20207;-77
2022/12/10 09:07:09;;;;;;;43.80;39.40;;;;;;;;;;5095760;28;20699;-79
2022/12/10 09:09:36;;;;;;;46.72;41.70;;;;;;;;;;5095686;28;20225;-77
2022/12/10 09:12:05;;;;;;;46.03;41.30;;;;;;;;;;5095278;28;20203;-78
2022/12/10 09:14:32;;;;;;;44.30;40.00;;;;;;;;;;5094630;28;20722;-78
2022/12/10 09:16:59;;;;;;;43.00;38.90;;;;;;;;;;5095468;28;20238;-82
2022/12/10 09:19:26;;;;;;;42.78;38.30;;;;;;;;;;5094445;28;20207;-77
2022/12/10 09:21:53;;;;;;;40.25;36.05;;;;;;;;;;5095223;28;20198;-75
2022/12/10 09:24:20;;;;;;;41.95;37.40;;;;;;;;;;5094764;28;20207;-75
2022/12/10 09:26:47;;;;;;;41.95;37.65;;;;;;;;;;5095133;28;20230;-76
2022/12/10 09:29:15;;;;;;;43.75;39.28;;;;;;;;;;5095398;28;20207;-75
2022/12/10 09:31:42;;;;;;;43.03;38.72;;;;;;;;;;5095173;28;20207;-75
2022/12/10 09:34:10;;;;;;;41.15;37.08;;;;;;;;;;5094238;28;20567;-76
2022/12/10 09:36:37;;;;;;;42.78;38.38;;;;;;;;;;5094874;28;20227;-76
2022/12/10 09:39:04;;;;;;;41.53;37.40;;;;;;;;;;5094654;28;20225;-76
2022/12/10 09:41:40;;;;;;;41.25;36.95;;;;;;;;;;5094993;28;20205;-77
2022/12/10 09:44:10;;;;;;;43.17;38.50;;;;;;;;;;5094401;28;20260;-75
2022/12/10 09:46:43;;;;;;;41.55;37.25;;;;;;;;;;5094611;28;20227;-76
2022/12/10 09:49:15;;;;;;;44.20;39.60;;;;;;;;;;5094728;28;20659;-76
2022/12/10 09:51:42;;;;;;;42.75;38.38;;;;;;;;;;5094838;28;20184;-76
2022/12/10 09:54:19;;;;;;;42.92;38.35;;;;;;;;;;5094005;28;20207;-76
2022/12/10 09:56:47;;;;;;;39.10;35.08;;;;;;;;;;5094293;28;20394;-76
2022/12/10 09:59:18;;;;;;;43.70;38.35;;;;;;;;;;5094634;28;20187;-76
2022/12/10 10:01:47;;;;;;;41.13;36.92;;;;;;;;;;5094234;28;20206;-76
2022/12/10 10:04:14;;;;;;;46.92;40.25;;;;;;;;;;5093761;28;20210;-75
2022/12/10 10:06:41;;;;;;;45.08;40.42;;;;;;;;;;5093734;28;20220;-76
2022/12/10 10:09:12;;;;;;;43.90;38.70;;;;;;;;;;5093306;28;20226;-75
2022/12/10 10:11:39;;;;;;;46.60;41.90;;;;;;;;;;5093992;28;20224;-76
2022/12/10 10:14:08;;;;;;;48.15;43.15;;;;;;;;;;5093699;28;20203;-76
2022/12/10 10:16:36;;;;;;;47.85;42.85;;;;;;;;;;5093912;28;20233;-76
2022/12/10 10:19:06;;;;;;;45.80;41.05;;;;;;;;;;5094159;28;20207;-75
2022/12/10 10:21:35;;;;;;;43.08;39.05;;;;;;;;;;5093931;28;20200;-75
2022/12/10 10:24:02;;;;;;;44.17;39.67;;;;;;;;;;5093490;28;20231;-75
2022/12/10 10:26:29;;;;;;;42.45;37.95;;;;;;;;;;5094617;28;20629;-75
2022/12/10 10:28:58;;;;;;;42.53;38.03;;;;;;;;;;5094333;28;20695;-78
2022/12/10 10:31:26;;;;;;;42.45;38.15;;;;;;;;;;5094312;28;20227;-77
2022/12/10 10:33:56;;;;;;;44.28;39.78;;;;;;;;;;5093163;28;20205;-78
2022/12/10 10:36:29;;;;;;;43.17;38.80;;;;;;;;;;5094052;28;20628;-78
2022/12/10 10:38:56;;;;;;;45.35;39.90;;;;;;;;;;5093719;28;20271;-77
2022/12/10 10:41:25;;;;;;;46.60;41.85;;;;;;;;;;5094324;28;20206;-79
2022/12/10 10:43:55;;;;;;;43.97;39.50;;;;;;;;;;5094048;28;20675;-78
2022/12/10 10:46:23;;;;;;;42.85;38.55;;;;;;;;;;5095048;28;20261;-79
2022/12/10 10:48:50;;;;;;;43.40;38.95;;;;;;;;;;5094851;28;20223;-78
2022/12/10 10:51:22;;;;;;;42.33;37.80;;;;;;;;;;5094117;28;20234;-78
2022/12/10 10:53:52;;;;;;;43.05;38.53;;;;;;;;;;5094187;28;20249;-78
2022/12/10 10:56:21;;;;;;;42.78;38.58;;;;;;;;;;5094472;28;20227;-79
2022/12/10 10:58:55;;;;;;;44.53;39.78;;;;;;;;;;5093912;28;20298;-78
2022/12/10 11:01:22;;;;;;;42.45;38.38;;;;;;;;;;5094411;28;20188;-78
2022/12/10 11:03:50;;;;;;;42.00;37.80;;;;;;;;;;5093907;28;20203;-78
2022/12/10 11:06:18;;;;;;;45.65;41.05;;;;;;;;;;5094313;28;20230;-78
2022/12/10 11:08:46;;;;;;;46.50;39.85;;;;;;;;;;5094299;28;20210;-78
2022/12/10 11:11:18;;;;;;;45.20;40.50;;;;;;;;;;5093585;28;20210;-77
2022/12/10 11:13:45;;;;;;;42.97;38.55;;;;;;;;;;5092235;28;20226;-77
2022/12/10 11:16:18;;;;;;;47.53;42.72;;;;;;;;;;5093313;28;20231;-77
2022/12/10 11:18:53;;;;;;;42.55;38.10;;;;;;;;;;5093434;28;20249;-77
2022/12/10 11:21:21;;;;;;;43.47;39.05;;;;;;;;;;5092994;28;20184;-78
2022/12/10 11:23:49;;;;;;;43.42;38.97;;;;;;;;;;5092816;28;20202;-77
2022/12/10 11:26:29;;;;;;;42.70;38.40;;;;;;;;;;5093176;28;20223;-78
2022/12/10 11:28:59;;;;;;;40.72;36.67;;;;;;;;;;5093272;28;20199;-78
2022/12/10 11:31:34;;;;;;;41.45;37.25;;;;;;;;;;5093373;28;20219;-77
2022/12/10 11:34:04;;;;;;;40.78;36.70;;;;;;;;;;5093075;28;20199;-78
2022/12/10 11:36:35;;;;;;;37.88;34.28;;;;;;;;;;5093692;28;20753;-79
2022/12/10 11:39:07;;;;;;;46.38;39.67;;;;;;;;;;5098699;28;20299;-81
2022/12/10 11:41:40;;;;;;;39.30;35.47;;;;;;;;;;5099557;28;20181;-86
2022/12/10 11:44:16;;;;;;;40.58;36.58;;;;;;;;;;5095912;28;20636;-79
2022/12/10 11:46:49;;;;;;;44.75;37.72;;;;;;;;;;5096180;28;20698;-80
2022/12/10 11:49:23;;;;;;;45.05;40.03;;;;;;;;;;5096595;28;20210;-80
2022/12/10 11:52:00;;;;;;;42.50;38.20;;;;;;;;;;5096386;28;20207;-79
2022/12/10 11:54:41;;;;;;;43.05;38.55;;;;;;;;;;5095690;28;20186;-78
2022/12/10 11:57:14;;;;;;;45.53;40.70;;;;;;;;;;5096103;28;20226;-78
2022/12/10 11:59:45;;;;;;;139.75;92.32;;;;;;;;;;5094497;28;20212;-79
2022/12/10 12:02:27;;;;;;;44.40;39.90;;;;;;;;;;5095409;28;20664;-79
2022/12/10 12:05:02;;;;;;;193.48;112.40;;;;;;;;;;5092652;28;20203;-79
2022/12/10 12:07:35;;;;;;;96.88;66.45;;;;;;;;;;5094883;28;20988;-78
2022/12/10 12:10:19;;;;;;;54.88;46.42;;;;;;;;;;5095377;28;20194;-78
2022/12/10 12:12:53;;;;;;;50.15;44.10;;;;;;;;;;5095576;28;20198;-80
2022/12/10 12:15:23;;;;;;;54.42;48.70;;;;;;;;;;5095487;28;20230;-78
2022/12/10 12:17:53;;;;;;;48.00;43.17;;;;;;;;;;5095029;28;20257;-79
2022/12/10 12:20:22;;;;;;;52.42;46.72;;;;;;;;;;5094946;28;20233;-80
2022/12/10 12:22:52;;;;;;;45.00;40.53;;;;;;;;;;5094578;28;20552;-79
2022/12/10 12:25:24;;;;;;;42.85;38.40;;;;;;;;;;5094012;28;20223;-80
2022/12/10 12:27:54;;;;;;;43.63;38.97;;;;;;;;;;5095352;28;20191;-79
2022/12/10 12:30:22;;;;;;;41.97;37.58;;;;;;;;;;5094912;28;20233;-79
2022/12/10 12:32:53;;;;;;;40.92;36.72;;;;;;;;;;5097934;28;20212;-81
2022/12/10 12:35:22;;;;;;;38.63;35.05;;;;;;;;;;5097618;28;20231;-79
2022/12/10 12:37:52;;;;;;;33.85;30.75;;;;;;;;;;5098212;28;20614;-79
2022/12/10 12:40:27;;;;;;;32.08;29.27;;;;;;;;;;5098654;28;20215;-81
2022/12/10 12:42:58;;;;;;;32.15;29.58;;;;;;;;;;5098447;28;20190;-80
2022/12/10 12:45:34;;;;;;;35.00;31.80;;;;;;;;;;5098046;28;20266;-79
2022/12/10 12:48:06;;;;;;;33.78;30.95;;;;;;;;;;5098206;28;20647;-80
2022/12/10 12:50:39;;;;;;;34.90;31.85;;;;;;;;;;5097612;28;20220;-79
2022/12/10 12:53:09;;;;;;;36.95;33.47;;;;;;;;;;5097620;28;20194;-80
2022/12/10 12:55:40;;;;;;;33.42;30.95;;;;;;;;;;5097897;28;20223;-80
2022/12/10 12:58:18;;;;;;;32.40;29.58;;;;;;;;;;5097985;28;20195;-79
2022/12/10 13:00:48;;;;;;;32.95;30.17;;;;;;;;;;5098328;28;20191;-80
2022/12/10 13:03:22;;;;;;;34.22;31.15;;;;;;;;;;5097368;28;20267;-79
2022/12/10 13:05:50;;;;;;;36.75;33.65;;;;;;;;;;5097057;28;20748;-78
2022/12/10 13:08:29;;;;;;;36.22;32.95;;;;;;;;;;5097291;28;20241;-80
2022/12/10 13:10:59;;;;;;;37.90;34.30;;;;;;;;;;5097708;28;20215;-79
2022/12/10 13:13:30;;;;;;;37.95;34.55;;;;;;;;;;5097095;28;20203;-79
2022/12/10 13:15:58;;;;;;;35.97;32.60;;;;;;;;;;5097407;28;20676;-80
2022/12/10 13:18:40;;;;;;;35.03;31.92;;;;;;;;;;5096732;28;20204;-78
2022/12/10 13:21:32;;;;;;;35.38;32.03;;;;;;;;;;5096907;28;20224;-78
2022/12/10 13:24:10;;;;;;;35.70;32.45;;;;;;;;;;5096390;28;20201;-79
2022/12/10 13:26:38;;;;;;;35.05;31.85;;;;;;;;;;5098293;28;20224;-78
2022/12/10 13:29:25;;;;;;;38.65;35.13;;;;;;;;;;5096906;28;20674;-78
2022/12/10 13:32:02;;;;;;;38.72;35.13;;;;;;;;;;5096799;28;20564;-79
2022/12/10 13:34:35;;;;;;;38.53;34.90;;;;;;;;;;5096325;28;20227;-80
2022/12/10 13:37:23;;;;;;;39.50;35.40;;;;;;;;;;5096647;28;20696;-78
2022/12/10 13:39:55;;;;;;;41.03;37.10;;;;;;;;;;5091677;28;20216;-79
2022/12/10 13:45:30;;;;;;;37.53;33.92;;;;;;;;;;5095445;28;20310;-80
2022/12/10 13:48:17;;;;;;;35.55;32.55;;;;;;;;;;5095883;28;20546;-79
2022/12/10 13:50:47;;;;;;;38.83;35.05;;;;;;;;;;5095546;28;20278;-78
2022/12/10 13:53:19;;;;;;;38.33;34.83;;;;;;;;;;5095013;28;20218;-79
2022/12/10 13:55:50;;;;;;;37.65;34.30;;;;;;;;;;5095060;28;20584;-78
2022/12/10 13:58:26;;;;;;;37.85;34.45;;;;;;;;;;5094915;28;20200;-79
2022/12/10 14:00:58;;;;;;;38.40;34.90;;;;;;;;;;5095184;28;20654;-78
2022/12/10 14:03:40;;;;;;;36.22;32.92;;;;;;;;;;5094897;28;20283;-78
2022/12/10 14:06:18;;;;;;;38.83;35.05;;;;;;;;;;5095420;28;20219;-78
2022/12/10 14:08:52;;;;;;;35.72;32.55;;;;;;;;;;5095461;28;20195;-85
2022/12/10 14:11:22;;;;;;;37.35;33.75;;;;;;;;;;5082638;28;20234;-80
2022/12/10 14:13:53;;;;;;;38.97;35.10;;;;;;;;;;5078298;28;20561;-80
2022/12/10 14:16:23;;;;;;;40.72;36.22;;;;;;;;;;5079299;28;20257;-81
2022/12/10 14:18:53;;;;;;;38.40;34.78;;;;;;;;;;5079561;28;20197;-80
2022/12/10 14:21:20;;;;;;;37.85;34.00;;;;;;;;;;5078431;28;20207;-82
2022/12/10 14:23:48;;;;;;;39.08;35.38;;;;;;;;;;5078533;28;20568;-83
2022/12/10 14:26:16;;;;;;;39.13;35.55;;;;;;;;;;5077754;28;20232;-80
2022/12/10 14:28:44;;;;;;;38.65;34.78;;;;;;;;;;5076034;28;20204;-80
2022/12/10 14:31:16;;;;;;;38.33;34.47;;;;;;;;;;5075722;28;20228;-78
2022/12/10 14:33:45;;;;;;;34.88;31.77;;;;;;;;;;5075387;28;20216;-78
2022/12/10 14:36:17;;;;;;;37.58;34.17;;;;;;;;;;5074217;28;20285;-80
2022/12/10 14:38:47;;;;;;;38.78;35.25;;;;;;;;;;5075373;28;20192;-79
2022/12/10 14:41:16;;;;;;;38.25;34.30;;;;;;;;;;5074818;28;20274;-78
2022/12/10 14:43:43;;;;;;;37.80;34.10;;;;;;;;;;5074173;28;20277;-79
2022/12/10 14:46:15;;;;;;;38.80;35.13;;;;;;;;;;5074530;28;20224;-78